Time;durP1;ratioP1;P1;durP2;ratioP2;P2;SDS_P1;SDS_P2;PMS_P1;PMS_P2;Temp;Humidity;BMP_temperature;BMP_pressure;BME280_temperature;BME280_humidity;BME280_pressure;Samples;Min_cycle;Max_cycle;Signal;HPM_P1;HPM_P2
2022/07/11 00:00:14;;;;;;;;;;;25.10;44.30;;;;;;2100332;28;1893;-79
2022/07/11 00:01:14;;;;;;;;;;;25.10;44.30;;;;;;2100017;28;1003;-79
2022/07/11 00:02:15;;;;;;;;;;;25.10;44.30;;;;;;2100327;28;845;-79
2022/07/11 00:03:15;;;;;;;;;;;25.20;44.30;;;;;;2099627;28;1246;-79
2022/07/11 00:04:16;;;;;;;;;;;25.10;44.30;;;;;;2091445;28;1273;-79
2022/07/11 00:05:16;;;;;;;;;;;25.20;44.30;;;;;;2099531;28;1253;-79
2022/07/11 00:06:16;;;;;;;;;;;25.20;44.30;;;;;;2091281;28;1413;-79
2022/07/11 00:07:17;;;;;;;;;;;25.10;44.30;;;;;;2099451;28;1171;-79
2022/07/11 00:08:17;;;;;;;;;;;25.10;44.30;;;;;;2099532;28;802;-79
2022/07/11 00:09:17;;;;;;;;;;;25.20;44.30;;;;;;2100253;28;1007;-79
2022/07/11 00:10:18;;;;;;;;;;;25.10;44.30;;;;;;2100258;28;1071;-79
2022/07/11 00:11:18;;;;;;;;;;;25.20;44.30;;;;;;2100306;28;932;-79
2022/07/11 00:12:20;;;;;;;;;;;25.10;44.30;;;;;;2100052;28;1098;-79
2022/07/11 00:13:21;;;;;;;;;;;25.10;44.30;;;;;;2100221;28;877;-79
2022/07/11 00:14:21;;;;;;;;;;;25.20;44.30;;;;;;2099545;28;1241;-79
2022/07/11 00:15:21;;;;;;;;;;;25.10;44.30;;;;;;2091084;28;1311;-79
2022/07/11 00:16:22;;;;;;;;;;;25.10;44.30;;;;;;2099626;28;872;-79
2022/07/11 00:17:23;;;;;;;;;;;25.10;44.30;;;;;;2099398;28;1249;-79
2022/07/11 00:18:23;;;;;;;;;;;25.10;44.30;;;;;;2099331;28;854;-79
2022/07/11 00:19:24;;;;;;;;;;;25.10;44.30;;;;;;2100188;28;908;-79
2022/07/11 00:20:24;;;;;;;;;;;25.10;44.30;;;;;;2099865;28;1894;-79
2022/07/11 00:21:24;;;;;;;;;;;25.10;44.30;;;;;;2099448;28;1281;-79
2022/07/11 00:22:25;;;;;;;;;;;25.10;44.30;;;;;;2099575;28;970;-79
2022/07/11 00:23:25;;;;;;;;;;;25.10;44.30;;;;;;2099484;28;1158;-79
2022/07/11 00:24:26;;;;;;;;;;;25.10;44.30;;;;;;2091330;28;1284;-78
2022/07/11 00:25:26;;;;;;;;;;;25.10;44.20;;;;;;2099748;28;940;-79
2022/07/11 00:26:27;;;;;;;;;;;25.10;44.30;;;;;;2099518;28;1248;-79
2022/07/11 00:27:27;;;;;;;;;;;25.10;44.30;;;;;;2099622;28;905;-79
2022/07/11 00:28:28;;;;;;;;;;;25.10;44.30;;;;;;2100212;28;943;-79
2022/07/11 00:29:29;;;;;;;;;;;25.10;44.30;;;;;;2099544;28;1361;-79
2022/07/11 00:30:29;;;;;;;;;;;25.20;44.30;;;;;;2091259;28;1392;-79
2022/07/11 00:31:29;;;;;;;;;;;25.10;44.30;;;;;;2099699;28;1468;-79
2022/07/11 00:32:30;;;;;;;;;;;25.10;44.30;;;;;;2091050;28;1374;-79
2022/07/11 00:33:30;;;;;;;;;;;25.10;44.30;;;;;;2099442;28;1047;-79
2022/07/11 00:34:30;;;;;;;;;;;25.10;44.30;;;;;;2099958;28;1213;-79
2022/07/11 00:35:31;;;;;;;;;;;25.20;44.30;;;;;;2099318;28;1249;-79
2022/07/11 00:36:31;;;;;;;;;;;25.10;44.30;;;;;;2099450;28;1011;-79
2022/07/11 00:37:32;;;;;;;;;;;25.10;44.30;;;;;;2099977;28;789;-79
2022/07/11 00:38:32;;;;;;;;;;;25.10;44.30;;;;;;2100038;28;1028;-79
2022/07/11 00:39:32;;;;;;;;;;;25.10;44.30;;;;;;2099461;28;1300;-79
2022/07/11 00:40:33;;;;;;;;;;;25.10;44.30;;;;;;2099427;28;1961;-79
2022/07/11 00:41:33;;;;;;;;;;;25.10;44.30;;;;;;2100120;28;851;-79
2022/07/11 00:42:34;;;;;;;;;;;25.10;44.30;;;;;;2100027;28;921;-79
2022/07/11 00:43:34;;;;;;;;;;;25.10;44.30;;;;;;2100135;28;897;-79
2022/07/11 00:44:36;;;;;;;;;;;25.10;44.40;;;;;;2099823;28;1236;-79
2022/07/11 00:45:36;;;;;;;;;;;25.10;44.40;;;;;;2099417;28;1222;-79
2022/07/11 00:46:36;;;;;;;;;;;25.10;44.30;;;;;;2091022;28;1252;-79
2022/07/11 00:47:37;;;;;;;;;;;25.10;44.30;;;;;;2099375;28;1011;-79
2022/07/11 00:48:37;;;;;;;;;;;25.10;44.40;;;;;;2099283;28;1293;-79
2022/07/11 00:49:37;;;;;;;;;;;25.10;44.30;;;;;;2099418;28;1054;-79
2022/07/11 00:50:38;;;;;;;;;;;25.10;44.30;;;;;;2099380;28;1349;-79
2022/07/11 00:51:38;;;;;;;;;;;25.10;44.30;;;;;;2099410;28;1398;-79
2022/07/11 00:52:39;;;;;;;;;;;25.10;44.30;;;;;;2107771;28;923;-79
2022/07/11 00:53:39;;;;;;;;;;;25.10;44.30;;;;;;2099867;28;842;-79
2022/07/11 00:54:40;;;;;;;;;;;25.20;44.30;;;;;;2099327;28;1271;-79
2022/07/11 00:55:40;;;;;;;;;;;25.10;44.30;;;;;;2091092;28;1331;-79
2022/07/11 00:56:40;;;;;;;;;;;25.10;44.30;;;;;;2099420;28;909;-79
2022/07/11 00:57:41;;;;;;;;;;;25.10;44.30;;;;;;2099345;28;1357;-79
2022/07/11 00:58:41;;;;;;;;;;;25.10;44.30;;;;;;2091011;28;1368;-79
2022/07/11 00:59:41;;;;;;;;;;;25.10;44.30;;;;;;2091114;28;1222;-79
2022/07/11 01:00:42;;;;;;;;;;;25.10;44.30;;;;;;2090954;28;1953;-79
2022/07/11 01:01:42;;;;;;;;;;;25.10;44.30;;;;;;2099567;28;798;-79
2022/07/11 01:02:42;;;;;;;;;;;25.10;44.30;;;;;;2099187;28;1248;-79
2022/07/11 01:03:43;;;;;;;;;;;25.10;44.30;;;;;;2090934;28;1265;-79
2022/07/11 01:04:43;;;;;;;;;;;25.20;44.30;;;;;;2099301;28;1149;-79
2022/07/11 01:05:44;;;;;;;;;;;25.10;44.30;;;;;;2099358;28;1353;-79
2022/07/11 01:06:44;;;;;;;;;;;25.10;44.30;;;;;;2099389;28;1007;-79
2022/07/11 01:07:44;;;;;;;;;;;25.20;44.30;;;;;;2099249;28;1421;-79
2022/07/11 01:08:45;;;;;;;;;;;25.10;44.30;;;;;;2099289;28;1071;-79
2022/07/11 01:09:45;;;;;;;;;;;25.20;44.30;;;;;;2099900;28;818;-79
2022/07/11 01:10:46;;;;;;;;;;;25.10;44.30;;;;;;2099502;28;1434;-79
2022/07/11 01:11:47;;;;;;;;;;;25.10;44.30;;;;;;2090907;28;1305;-79
2022/07/11 01:12:48;;;;;;;;;;;25.10;44.30;;;;;;2099325;28;1230;-79
2022/07/11 01:13:49;;;;;;;;;;;25.10;44.30;;;;;;2092439;28;1384;-79
2022/07/11 01:14:50;;;;;;;;;;;25.10;44.30;;;;;;2092583;28;1295;-79
2022/07/11 01:15:50;;;;;;;;;;;25.10;44.30;;;;;;2101116;28;929;-79
2022/07/11 01:16:51;;;;;;;;;;;25.20;44.30;;;;;;2101598;28;1099;-79
2022/07/11 01:17:52;;;;;;;;;;;25.10;44.30;;;;;;2100979;28;1370;-79
2022/07/11 01:18:52;;;;;;;;;;;25.10;44.30;;;;;;2100924;28;817;-79
2022/07/11 01:19:53;;;;;;;;;;;25.10;44.30;;;;;;2101110;28;1375;-79
2022/07/11 01:20:53;;;;;;;;;;;25.10;44.30;;;;;;2101016;28;1893;-79
2022/07/11 01:21:54;;;;;;;;;;;25.10;44.30;;;;;;2101054;28;1340;-79
2022/07/11 01:22:56;;;;;;;;;;;25.10;44.30;;;;;;2100938;28;814;-79
2022/07/11 01:23:56;;;;;;;;;;;25.20;44.30;;;;;;2101022;28;1277;-79
2022/07/11 01:24:56;;;;;;;;;;;25.10;44.30;;;;;;2092590;28;1296;-79
2022/07/11 01:25:57;;;;;;;;;;;25.10;44.30;;;;;;2092715;28;1272;-79
2022/07/11 01:26:57;;;;;;;;;;;25.10;44.20;;;;;;2100906;28;909;-79
2022/07/11 01:27:58;;;;;;;;;;;25.20;44.30;;;;;;2100740;28;1413;-79
2022/07/11 01:28:59;;;;;;;;;;;25.10;44.30;;;;;;2092605;28;1364;-79
2022/07/11 01:29:59;;;;;;;;;;;25.10;44.30;;;;;;2100956;28;868;-79
2022/07/11 01:30:59;;;;;;;;;;;25.10;44.30;;;;;;2100681;28;1175;-79
2022/07/11 01:32:00;;;;;;;;;;;25.10;44.30;;;;;;2101003;28;987;-79
2022/07/11 01:33:00;;;;;;;;;;;25.10;44.30;;;;;;2101421;28;878;-79
2022/07/11 01:34:01;;;;;;;;;;;25.10;44.30;;;;;;2101567;28;907;-79
2022/07/11 01:35:01;;;;;;;;;;;25.10;44.30;;;;;;2101376;28;1173;-78
2022/07/11 01:36:02;;;;;;;;;;;25.10;44.30;;;;;;2101481;28;864;-79
2022/07/11 01:37:02;;;;;;;;;;;25.10;44.30;;;;;;2100783;28;1194;-79
2022/07/11 01:38:02;;;;;;;;;;;25.10;44.30;;;;;;2092721;28;1317;-79
2022/07/11 01:39:03;;;;;;;;;;;25.10;44.30;;;;;;2100979;28;921;-79
2022/07/11 01:40:03;;;;;;;;;;;25.10;44.30;;;;;;2100863;28;1539;-79
2022/07/11 01:41:03;;;;;;;;;;;25.10;44.30;;;;;;2100930;28;1965;-79
2022/07/11 01:42:04;;;;;;;;;;;25.10;44.30;;;;;;2101521;28;913;-79
2022/07/11 01:43:04;;;;;;;;;;;25.10;44.30;;;;;;2101521;28;872;-79
2022/07/11 01:44:04;;;;;;;;;;;25.10;44.30;;;;;;2100902;28;1380;-79
2022/07/11 01:45:05;;;;;;;;;;;25.10;44.30;;;;;;2092526;28;1381;-79
2022/07/11 01:46:05;;;;;;;;;;;25.10;44.30;;;;;;2100787;28;1410;-79
2022/07/11 01:47:06;;;;;;;;;;;25.10;44.30;;;;;;2092564;28;1297;-79
2022/07/11 01:48:06;;;;;;;;;;;25.10;44.30;;;;;;2100949;28;890;-79
2022/07/11 01:49:07;;;;;;;;;;;25.10;44.30;;;;;;2100809;28;1485;-79
2022/07/11 01:50:07;;;;;;;;;;;25.10;44.30;;;;;;2092470;28;1124;-79
2022/07/11 01:51:07;;;;;;;;;;;25.10;44.30;;;;;;2092126;28;1388;-79
2022/07/11 01:52:08;;;;;;;;;;;25.10;44.30;;;;;;2100670;28;1027;-79
2022/07/11 01:53:08;;;;;;;;;;;25.10;44.30;;;;;;2100434;28;1349;-79
2022/07/11 01:54:08;;;;;;;;;;;25.10;44.30;;;;;;2092468;28;1384;-79
2022/07/11 01:55:11;;;;;;;;;;;25.10;44.30;;;;;;2100757;28;1180;-79
2022/07/11 01:56:11;;;;;;;;;;;25.10;44.30;;;;;;2100605;28;1374;-79
2022/07/11 01:57:11;;;;;;;;;;;25.10;44.30;;;;;;2100632;28;1237;-79
2022/07/11 01:58:12;;;;;;;;;;;25.10;44.30;;;;;;2108976;28;1016;-79
2022/07/11 01:59:12;;;;;;;;;;;25.10;44.30;;;;;;2101352;28;808;-79
2022/07/11 02:00:13;;;;;;;;;;;25.10;44.30;;;;;;2100577;28;1294;-79
2022/07/11 02:01:13;;;;;;;;;;;25.10;44.30;;;;;;2100638;28;1090;-79
2022/07/11 02:02:13;;;;;;;;;;;25.10;44.30;;;;;;2100495;28;1237;-79
2022/07/11 02:03:14;;;;;;;;;;;25.10;44.30;;;;;;2100734;28;978;-79
2022/07/11 02:04:14;;;;;;;;;;;25.10;44.30;;;;;;2100689;28;1460;-79
2022/07/11 02:05:14;;;;;;;;;;;25.10;44.30;;;;;;2100557;28;1260;-79
2022/07/11 02:06:15;;;;;;;;;;;25.10;44.30;;;;;;2101251;28;932;-79
2022/07/11 02:08:11;;;;;;;;;;;25.10;44.30;;;;;;2101205;28;843;-79
2022/07/11 02:08:36;;;;;;;;;;;25.10;44.30;;;;;;2101055;28;1198;-79
2022/07/11 02:09:37;;;;;;;;;;;25.10;44.30;;;;;;2100617;28;1374;-79
2022/07/11 02:10:37;;;;;;;;;;;25.10;44.30;;;;;;2100784;28;900;-79
2022/07/11 02:11:37;;;;;;;;;;;25.10;44.30;;;;;;2101131;28;921;-79
2022/07/11 02:12:38;;;;;;;;;;;25.10;44.30;;;;;;2100404;28;1248;-79
2022/07/11 02:13:38;;;;;;;;;;;25.10;44.30;;;;;;2100455;28;901;-79
2022/07/11 02:14:38;;;;;;;;;;;25.10;44.30;;;;;;2100353;28;1298;-79
2022/07/11 02:15:39;;;;;;;;;;;25.10;44.30;;;;;;2100692;28;877;-79
2022/07/11 02:16:39;;;;;;;;;;;25.10;44.30;;;;;;2100582;28;1218;-79
2022/07/11 02:17:40;;;;;;;;;;;25.10;44.30;;;;;;2092134;28;1327;-79
2022/07/11 02:18:40;;;;;;;;;;;25.10;44.30;;;;;;2100372;28;905;-79
2022/07/11 02:19:40;;;;;;;;;;;25.10;44.30;;;;;;2108808;28;1213;-79
2022/07/11 02:20:41;;;;;;;;;;;25.10;44.30;;;;;;2100588;28;1898;-79
2022/07/11 02:21:41;;;;;;;;;;;25.10;44.30;;;;;;2092202;28;1345;-79
2022/07/11 02:22:41;;;;;;;;;;;25.10;44.30;;;;;;2100480;28;1036;-79
2022/07/11 02:23:42;;;;;;;;;;;25.10;44.30;;;;;;2101134;28;806;-79
2022/07/11 02:24:42;;;;;;;;;;;25.10;44.30;;;;;;2100257;28;1291;-79
2022/07/11 02:25:42;;;;;;;;;;;25.10;44.30;;;;;;2092196;28;1368;-79
2022/07/11 02:26:43;;;;;;;;;;;25.10;44.30;;;;;;2100485;28;863;-79
2022/07/11 02:27:43;;;;;;;;;;;25.10;44.30;;;;;;2100344;28;1124;-79
2022/07/11 02:28:44;;;;;;;;;;;25.10;44.30;;;;;;2100388;28;849;-79
2022/07/11 02:29:45;;;;;;;;;;;25.10;44.30;;;;;;2100344;28;1333;-79
2022/07/11 02:30:45;;;;;;;;;;;25.10;44.30;;;;;;2100392;28;1202;-79
2022/07/11 02:31:46;;;;;;;;;;;25.10;44.30;;;;;;2100287;28;1385;-79
2022/07/11 02:32:46;;;;;;;;;;;25.10;44.30;;;;;;2091900;28;1205;-79
2022/07/11 02:33:46;;;;;;;;;;;25.10;44.30;;;;;;2100423;28;1256;-79
2022/07/11 02:34:47;;;;;;;;;;;25.10;44.30;;;;;;2108865;28;1220;-79
2022/07/11 02:35:47;;;;;;;;;;;25.10;44.30;;;;;;2100444;28;1496;-79
2022/07/11 02:36:47;;;;;;;;;;;25.10;44.30;;;;;;2100228;28;1336;-78
2022/07/11 02:37:48;;;;;;;;;;;25.10;44.30;;;;;;2108769;28;1090;-79
2022/07/11 02:38:48;;;;;;;;;;;25.10;44.30;;;;;;2101060;28;836;-77
2022/07/11 02:39:49;;;;;;;;;;;25.10;44.30;;;;;;2100310;28;1244;-79
2022/07/11 02:40:50;;;;;;;;;;;25.10;44.30;;;;;;2100234;28;1906;-79
2022/07/11 02:41:50;;;;;;;;;;;25.10;44.30;;;;;;2100302;28;1365;-79
2022/07/11 02:42:52;;;;;;;;;;;25.10;44.30;;;;;;2100583;28;825;-79
2022/07/11 02:43:52;;;;;;;;;;;25.10;44.30;;;;;;2100472;28;1271;-79
2022/07/11 02:44:52;;;;;;;;;;;25.10;44.30;;;;;;2100264;28;1185;-79
2022/07/11 02:45:53;;;;;;;;;;;25.10;44.30;;;;;;2100955;28;959;-79
2022/07/11 02:46:53;;;;;;;;;;;25.10;44.30;;;;;;2100319;28;1229;-79
2022/07/11 02:47:53;;;;;;;;;;;25.10;44.30;;;;;;2100317;28;786;-79
2022/07/11 02:48:54;;;;;;;;;;;25.10;44.40;;;;;;2100218;28;1196;-79
2022/07/11 02:49:54;;;;;;;;;;;25.10;44.30;;;;;;2091818;28;1377;-79
2022/07/11 02:50:55;;;;;;;;;;;25.10;44.30;;;;;;2091911;28;1355;-79
2022/07/11 02:51:55;;;;;;;;;;;25.10;44.30;;;;;;2092015;28;1242;-79
2022/07/11 02:52:55;;;;;;;;;;;25.10;44.30;;;;;;2091895;28;1218;-79
2022/07/11 02:53:56;;;;;;;;;;;25.10;44.30;;;;;;2091860;28;1246;-79
2022/07/11 02:54:56;;;;;;;;;;;25.10;44.30;;;;;;2092030;28;1340;-79
2022/07/11 02:55:56;;;;;;;;;;;25.10;44.30;;;;;;2101142;28;834;-79
2022/07/11 02:56:57;;;;;;;;;;;25.10;44.30;;;;;;2101421;28;1266;-79
2022/07/11 02:57:57;;;;;;;;;;;25.10;44.30;;;;;;2104210;28;1040;-79
2022/07/11 02:58:57;;;;;;;;;;;25.10;44.30;;;;;;2103796;28;1240;-79
2022/07/11 02:59:58;;;;;;;;;;;25.10;44.30;;;;;;2101495;28;829;-79
2022/07/11 03:00:58;;;;;;;;;;;25.10;44.30;;;;;;2100669;28;1957;-79
2022/07/11 03:01:59;;;;;;;;;;;25.10;44.30;;;;;;2100754;28;790;-79
2022/07/11 03:02:59;;;;;;;;;;;25.10;44.30;;;;;;2100789;28;822;-79
2022/07/11 03:03:59;;;;;;;;;;;25.10;44.30;;;;;;2100130;28;1436;-79
2022/07/11 03:05:00;;;;;;;;;;;25.10;44.30;;;;;;2100190;28;1169;-79
2022/07/11 03:06:00;;;;;;;;;;;25.10;44.30;;;;;;2100773;28;896;-79
2022/07/11 03:07:00;;;;;;;;;;;25.10;44.30;;;;;;2099906;28;1251;-79
2022/07/11 03:08:01;;;;;;;;;;;25.10;44.30;;;;;;2100143;28;886;-79
2022/07/11 03:09:01;;;;;;;;;;;25.10;44.30;;;;;;2100863;28;1027;-79
2022/07/11 03:10:02;;;;;;;;;;;25.10;44.30;;;;;;2100659;28;885;-79
2022/07/11 03:11:02;;;;;;;;;;;25.10;44.30;;;;;;2100682;28;921;-79
2022/07/11 03:12:02;;;;;;;;;;;25.10;44.30;;;;;;2099878;28;1361;-79
2022/07/11 03:13:03;;;;;;;;;;;25.10;44.30;;;;;;2091609;28;1269;-79
2022/07/11 03:14:03;;;;;;;;;;;25.10;44.30;;;;;;2099809;28;1180;-79
2022/07/11 03:15:03;;;;;;;;;;;25.10;44.30;;;;;;2099982;28;1169;-79
2022/07/11 03:16:05;;;;;;;;;;;25.10;44.30;;;;;;2100624;28;936;-79
2022/07/11 03:17:05;;;;;;;;;;;25.10;44.30;;;;;;2100165;28;1218;-79
2022/07/11 03:18:07;;;;;;;;;;;25.10;44.30;;;;;;2091709;28;1214;-79
2022/07/11 03:19:07;;;;;;;;;;;25.10;44.40;;;;;;2100102;28;1213;-79
2022/07/11 03:20:08;;;;;;;;;;;25.10;44.30;;;;;;2100083;28;806;-79
2022/07/11 03:21:08;;;;;;;;;;;25.10;44.30;;;;;;2100591;28;1890;-79
2022/07/11 03:22:08;;;;;;;;;;;25.10;44.30;;;;;;2100693;28;821;-79
2022/07/11 03:23:10;;;;;;;;;;;25.10;44.30;;;;;;2100084;28;1201;-79
2022/07/11 03:24:10;;;;;;;;;;;25.10;44.30;;;;;;2091882;28;1358;-79
2022/07/11 03:25:11;;;;;;;;;;;25.10;44.30;;;;;;2100058;28;1247;-79
2022/07/11 03:26:11;;;;;;;;;;;25.10;44.30;;;;;;2099925;28;1391;-79
2022/07/11 03:27:11;;;;;;;;;;;25.10;44.30;;;;;;2099949;28;940;-79
2022/07/11 03:28:12;;;;;;;;;;;25.10;44.30;;;;;;2099935;28;1311;-79
2022/07/11 03:29:12;;;;;;;;;;;25.10;44.30;;;;;;2099900;28;1039;-79
2022/07/11 03:30:14;;;;;;;;;;;25.10;44.30;;;;;;2108216;28;1192;-79
2022/07/11 03:31:15;;;;;;;;;;;25.10;44.30;;;;;;2099844;28;1300;-79
2022/07/11 03:32:15;;;;;;;;;;;25.10;44.30;;;;;;2099897;28;974;-79
2022/07/11 03:33:15;;;;;;;;;;;25.10;44.30;;;;;;2099915;28;1249;-79
2022/07/11 03:34:16;;;;;;;;;;;25.10;44.30;;;;;;2099853;28;1096;-79
2022/07/11 03:36:35;;;;;;;;;;;25.10;44.30;;;;;;2100014;28;619;-79
2022/07/11 03:37:35;;;;;;;;;;;25.10;44.30;;;;;;2099815;28;1400;-79
2022/07/11 03:38:36;;;;;;;;;;;25.10;44.30;;;;;;2091703;28;1246;-79
2022/07/11 03:39:37;;;;;;;;;;;25.10;44.30;;;;;;2099874;28;847;-79
2022/07/11 03:40:37;;;;;;;;;;;25.10;44.30;;;;;;2100286;28;1963;-79
2022/07/11 03:41:37;;;;;;;;;;;25.10;44.30;;;;;;2099709;28;1096;-79
2022/07/11 03:42:38;;;;;;;;;;;25.10;44.30;;;;;;2091470;28;1171;-79
2022/07/11 03:43:38;;;;;;;;;;;25.10;44.30;;;;;;2099891;28;1363;-79
2022/07/11 03:44:39;;;;;;;;;;;25.10;44.30;;;;;;2091427;28;1288;-79
2022/07/11 03:45:39;;;;;;;;;;;25.10;44.30;;;;;;2099618;28;1352;-79
2022/07/11 03:46:40;;;;;;;;;;;25.10;44.30;;;;;;2091374;28;1373;-79
2022/07/11 03:47:40;;;;;;;;;;;25.10;44.30;;;;;;2091388;28;1166;-79
2022/07/11 03:48:41;;;;;;;;;;;25.10;44.30;;;;;;2099813;28;917;-79
2022/07/11 03:49:41;;;;;;;;;;;25.10;44.30;;;;;;2100406;28;868;-79
2022/07/11 03:50:41;;;;;;;;;;;25.10;44.30;;;;;;2099663;28;1253;-79
2022/07/11 03:51:42;;;;;;;;;;;25.10;44.30;;;;;;2099805;28;1003;-79
2022/07/11 03:52:42;;;;;;;;;;;25.10;44.30;;;;;;2099778;28;1230;-79
2022/07/11 03:53:43;;;;;;;;;;;25.10;44.30;;;;;;2099720;28;1055;-79
2022/07/11 03:54:44;;;;;;;;;;;25.10;44.30;;;;;;2099671;28;1336;-79
2022/07/11 03:55:44;;;;;;;;;;;25.10;44.30;;;;;;2091438;28;1310;-79
2022/07/11 03:56:44;;;;;;;;;;;25.10;44.30;;;;;;2099849;28;931;-79
2022/07/11 03:57:45;;;;;;;;;;;25.10;44.30;;;;;;2100528;28;852;-79
2022/07/11 03:58:45;;;;;;;;;;;25.10;44.30;;;;;;2099608;28;1241;-79
2022/07/11 03:59:46;;;;;;;;;;;25.10;44.30;;;;;;2099699;28;866;-79
2022/07/11 04:00:46;;;;;;;;;;;25.10;44.50;;;;;;2099564;28;1964;-79
2022/07/11 04:01:46;;;;;;;;;;;25.00;44.50;;;;;;2091375;28;1262;-79
2022/07/11 04:02:47;;;;;;;;;;;25.00;44.30;;;;;;2091177;28;1210;-79
2022/07/11 04:03:47;;;;;;;;;;;24.90;43.80;;;;;;2099656;28;830;-79
2022/07/11 04:04:47;;;;;;;;;;;24.80;43.60;;;;;;2100163;28;1173;-79
2022/07/11 04:05:48;;;;;;;;;;;24.80;43.30;;;;;;2100332;28;899;-79
2022/07/11 04:06:49;;;;;;;;;;;24.70;42.80;;;;;;2100291;28;1032;-79
2022/07/11 04:07:49;;;;;;;;;;;24.70;42.60;;;;;;2100332;28;1055;-79
2022/07/11 04:08:49;;;;;;;;;;;24.60;42.50;;;;;;2100263;28;884;-79
2022/07/11 04:09:50;;;;;;;;;;;24.60;42.30;;;;;;2099500;28;1229;-79
2022/07/11 04:10:50;;;;;;;;;;;24.50;42.00;;;;;;2099801;28;877;-79
2022/07/11 04:11:50;;;;;;;;;;;24.50;41.70;;;;;;2099631;28;1302;-79
2022/07/11 04:12:51;;;;;;;;;;;24.40;41.60;;;;;;2099750;28;801;-79
2022/07/11 04:13:51;;;;;;;;;;;24.40;41.30;;;;;;2099625;28;1187;-79
2022/07/11 04:14:51;;;;;;;;;;;24.30;41.20;;;;;;2091135;28;1403;-79
2022/07/11 04:15:52;;;;;;;;;;;24.30;41.30;;;;;;2091144;28;1340;-79
2022/07/11 04:16:53;;;;;;;;;;;24.30;40.90;;;;;;2091209;28;1152;-79
2022/07/11 04:17:54;;;;;;;;;;;24.20;40.80;;;;;;2099719;28;906;-79
2022/07/11 04:18:54;;;;;;;;;;;24.20;40.70;;;;;;2099458;28;1279;-79
2022/07/11 04:19:54;;;;;;;;;;;24.20;40.60;;;;;;2091208;28;1250;-79
2022/07/11 04:20:55;;;;;;;;;;;24.20;40.40;;;;;;2099442;28;1898;-79
2022/07/11 04:21:55;;;;;;;;;;;24.10;40.50;;;;;;2091334;28;1278;-79
2022/07/11 04:22:55;;;;;;;;;;;24.10;40.30;;;;;;2099429;28;1335;-79
2022/07/11 04:23:56;;;;;;;;;;;24.00;40.30;;;;;;2091310;28;1246;-79
2022/07/11 04:24:56;;;;;;;;;;;24.00;40.10;;;;;;2099389;28;1253;-79
2022/07/11 04:25:57;;;;;;;;;;;24.00;40.10;;;;;;2107935;28;1074;-79
2022/07/11 04:26:57;;;;;;;;;;;24.00;39.80;;;;;;2100254;28;829;-79
2022/07/11 04:27:57;;;;;;;;;;;23.90;39.90;;;;;;2100054;28;937;-79
2022/07/11 04:28:58;;;;;;;;;;;23.90;39.90;;;;;;2099363;28;1515;-79
2022/07/11 04:29:58;;;;;;;;;;;23.90;39.90;;;;;;2090990;28;1278;-79
2022/07/11 04:30:58;;;;;;;;;;;23.80;39.80;;;;;;2099384;28;921;-79
2022/07/11 04:31:59;;;;;;;;;;;23.80;39.70;;;;;;2100004;28;1071;-79
2022/07/11 04:32:59;;;;;;;;;;;23.80;39.70;;;;;;2099969;28;954;-79
2022/07/11 04:33:59;;;;;;;;;;;23.80;39.70;;;;;;2099568;28;1412;-79
2022/07/11 04:35:00;;;;;;;;;;;23.80;39.70;;;;;;2091093;28;1232;-79
2022/07/11 04:36:00;;;;;;;;;;;23.80;39.60;;;;;;2099381;28;1252;-79
2022/07/11 04:37:00;;;;;;;;;;;23.70;39.70;;;;;;2099420;28;984;-79
2022/07/11 04:38:01;;;;;;;;;;;23.70;39.50;;;;;;2099475;28;1256;-79
2022/07/11 04:39:01;;;;;;;;;;;23.70;39.50;;;;;;2091173;28;1424;-81
2022/07/11 04:40:01;;;;;;;;;;;23.70;39.50;;;;;;2099524;28;964;-79
2022/07/11 04:41:02;;;;;;;;;;;23.70;39.50;;;;;;2099283;28;1977;-79
2022/07/11 04:42:02;;;;;;;;;;;23.70;39.60;;;;;;2091157;28;1277;-79
2022/07/11 04:43:03;;;;;;;;;;;23.70;39.30;;;;;;2091059;28;1211;-79
2022/07/11 04:44:03;;;;;;;;;;;23.70;39.30;;;;;;2091021;28;1381;-79
2022/07/11 04:45:03;;;;;;;;;;;23.60;39.30;;;;;;2090968;28;1401;-79
2022/07/11 04:46:05;;;;;;;;;;;23.70;39.30;;;;;;2099544;28;1064;-79
2022/07/11 04:47:05;;;;;;;;;;;23.70;39.10;;;;;;2100107;28;928;-79
2022/07/11 04:48:05;;;;;;;;;;;23.60;39.20;;;;;;2099271;28;808;-79
2022/07/11 04:49:06;;;;;;;;;;;23.60;39.20;;;;;;2099380;28;1339;-79
2022/07/11 04:50:06;;;;;;;;;;;23.60;39.20;;;;;;2099414;28;850;-79
2022/07/11 04:51:07;;;;;;;;;;;23.60;39.20;;;;;;2099271;28;1257;-79
2022/07/11 04:52:07;;;;;;;;;;;23.60;39.10;;;;;;2091162;28;1380;-79
2022/07/11 04:53:07;;;;;;;;;;;23.50;39.10;;;;;;2091132;28;1279;-79
2022/07/11 04:54:08;;;;;;;;;;;23.60;39.20;;;;;;2090989;28;1373;-79
2022/07/11 04:55:09;;;;;;;;;;;23.60;39.10;;;;;;2099390;28;1205;-79
2022/07/11 04:56:09;;;;;;;;;;;23.60;39.10;;;;;;2099366;28;1257;-79
2022/07/11 04:57:09;;;;;;;;;;;23.60;39.10;;;;;;2099508;28;1032;-79
2022/07/11 04:58:11;;;;;;;;;;;23.60;39.00;;;;;;2099426;28;1375;-79
2022/07/11 04:59:11;;;;;;;;;;;23.60;39.10;;;;;;2099347;28;912;-79
2022/07/11 05:00:12;;;;;;;;;;;23.50;39.00;;;;;;2100036;28;837;-79
2022/07/11 05:01:12;;;;;;;;;;;23.50;39.10;;;;;;2100073;28;1894;-79
2022/07/11 05:02:12;;;;;;;;;;;23.50;39.00;;;;;;2100028;28;1201;-79
2022/07/11 05:03:14;;;;;;;;;;;23.50;39.00;;;;;;2100059;28;810;-79
2022/07/11 05:04:15;;;;;;;;;;;23.50;39.00;;;;;;2100148;28;920;-79
2022/07/11 05:05:15;;;;;;;;;;;23.50;38.90;;;;;;2099893;28;1252;-79
2022/07/11 05:06:15;;;;;;;;;;;23.50;39.00;;;;;;2100039;28;841;-79
2022/07/11 05:07:16;;;;;;;;;;;23.50;39.00;;;;;;2099289;28;1385;-79
2022/07/11 05:08:16;;;;;;;;;;;23.50;38.90;;;;;;2090849;28;1357;-79
2022/07/11 05:09:16;;;;;;;;;;;23.50;39.00;;;;;;2099242;28;1387;-79
2022/07/11 05:10:17;;;;;;;;;;;23.40;38.90;;;;;;2091129;28;1246;-79
2022/07/11 05:11:17;;;;;;;;;;;23.40;38.90;;;;;;2099211;28;901;-79
2022/07/11 05:12:20;;;;;;;;;;;23.40;38.80;;;;;;2099990;28;1059;-79
2022/07/11 05:13:20;;;;;;;;;;;23.40;38.80;;;;;;2099394;28;1233;-79
2022/07/11 05:14:20;;;;;;;;;;;23.40;38.80;;;;;;2099342;28;1024;-79
2022/07/11 05:15:21;;;;;;;;;;;23.40;38.90;;;;;;2099062;28;1258;-79
2022/07/11 05:16:21;;;;;;;;;;;23.40;38.80;;;;;;2091043;28;1212;-79
2022/07/11 05:17:23;;;;;;;;;;;23.40;38.80;;;;;;2099350;28;877;-79
2022/07/11 05:18:23;;;;;;;;;;;23.40;38.80;;;;;;2099857;28;933;-79
2022/07/11 05:19:24;;;;;;;;;;;23.40;38.80;;;;;;2099230;28;1417;-79
2022/07/11 05:20:24;;;;;;;;;;;23.40;38.80;;;;;;2091013;28;1898;-79
2022/07/11 05:21:24;;;;;;;;;;;23.40;38.70;;;;;;2099352;28;844;-79
2022/07/11 05:22:25;;;;;;;;;;;23.30;38.70;;;;;;2100034;28;905;-79
2022/07/11 05:23:25;;;;;;;;;;;23.40;38.80;;;;;;2099917;28;1007;-79
2022/07/11 05:24:26;;;;;;;;;;;23.40;38.80;;;;;;2099875;28;1276;-79
2022/07/11 05:25:26;;;;;;;;;;;23.40;38.80;;;;;;2099926;28;920;-79
2022/07/11 05:26:26;;;;;;;;;;;23.40;38.60;;;;;;2099858;28;856;-79
2022/07/11 05:27:27;;;;;;;;;;;23.30;38.70;;;;;;2099296;28;1296;-79
2022/07/11 05:28:28;;;;;;;;;;;23.30;38.70;;;;;;2090878;28;1377;-79
2022/07/11 05:29:28;;;;;;;;;;;23.30;38.70;;;;;;2099361;28;971;-79
2022/07/11 05:30:28;;;;;;;;;;;23.30;38.80;;;;;;2099061;28;1128;-79
2022/07/11 05:31:29;;;;;;;;;;;23.30;38.70;;;;;;2099309;28;865;-79
2022/07/11 05:32:30;;;;;;;;;;;23.30;38.70;;;;;;2099120;28;1343;-79
2022/07/11 05:33:30;;;;;;;;;;;23.30;38.70;;;;;;2099200;28;1115;-79
2022/07/11 05:34:30;;;;;;;;;;;23.30;38.60;;;;;;2107519;28;1263;-79
2022/07/11 05:35:31;;;;;;;;;;;23.30;38.70;;;;;;2099171;28;1204;-79
2022/07/11 05:36:31;;;;;;;;;;;23.30;38.70;;;;;;2099295;28;874;-79
2022/07/11 05:37:32;;;;;;;;;;;23.30;38.80;;;;;;2099216;28;1255;-79
2022/07/11 05:38:32;;;;;;;;;;;23.30;38.70;;;;;;2090808;28;1399;-79
2022/07/11 05:39:32;;;;;;;;;;;23.30;38.70;;;;;;2099063;28;1148;-79
2022/07/11 05:40:33;;;;;;;;;;;23.30;38.70;;;;;;2090813;28;1906;-79
2022/07/11 05:41:33;;;;;;;;;;;23.30;38.60;;;;;;2099163;28;896;-79
2022/07/11 05:42:33;;;;;;;;;;;23.30;38.70;;;;;;2099085;28;1362;-80
2022/07/11 05:43:34;;;;;;;;;;;23.30;38.70;;;;;;2092168;28;1282;-80
2022/07/11 05:44:34;;;;;;;;;;;23.30;38.80;;;;;;2091702;28;1258;-80
2022/07/11 05:45:35;;;;;;;;;;;23.30;38.90;;;;;;2100266;28;935;-80
2022/07/11 05:46:39;;;;;;;;;;;23.30;39.00;;;;;;2100780;28;1199;-79
2022/07/11 05:47:39;;;;;;;;;;;23.30;39.20;;;;;;2100727;28;794;-80
2022/07/11 05:48:40;;;;;;;;;;;23.30;39.20;;;;;;2100722;28;1217;-80
2022/07/11 05:49:40;;;;;;;;;;;23.30;39.60;;;;;;2092209;28;1244;-83
2022/07/11 05:50:41;;;;;;;;;;;23.40;39.70;;;;;;2100850;28;1507;-80
2022/07/11 05:51:41;;;;;;;;;;;23.40;39.90;;;;;;2092743;28;1225;-79
2022/07/11 05:52:41;;;;;;;;;;;23.30;40.10;;;;;;2100631;28;860;-80
2022/07/11 05:53:42;;;;;;;;;;;23.40;40.20;;;;;;2101201;28;1263;-81
2022/07/11 05:54:42;;;;;;;;;;;23.50;40.20;;;;;;2092567;28;1230;-80
2022/07/11 05:55:43;;;;;;;;;;;23.40;40.20;;;;;;2100683;28;802;-80
2022/07/11 05:56:43;;;;;;;;;;;23.40;40.30;;;;;;2099104;28;1240;-81
2022/07/11 05:57:43;;;;;;;;;;;23.40;40.30;;;;;;2099288;28;1313;-81
2022/07/11 05:58:45;;;;;;;;;;;23.40;40.20;;;;;;2107814;28;1091;-82
2022/07/11 05:59:46;;;;;;;;;;;23.50;40.30;;;;;;2100253;28;1175;-80